createdAt,value
2023-02-15T00:00:25.756Z,30.30
2023-02-15T00:01:26.978Z,25.10
2023-02-15T00:02:27.329Z,29.90
2023-02-15T00:03:28.227Z,28.40
2023-02-15T00:04:29.039Z,27.00
2023-02-15T00:05:29.891Z,29.60
2023-02-15T00:06:30.751Z,28.10
2023-02-15T00:07:31.621Z,28.00
2023-02-15T00:08:32.475Z,29.30
2023-02-15T00:09:33.312Z,32.30
2023-02-15T00:10:34.168Z,31.20
2023-02-15T00:11:35.490Z,31.40
2023-02-15T00:12:35.839Z,33.70
2023-02-15T00:13:36.709Z,31.30
2023-02-15T00:14:37.523Z,32.00
2023-02-15T00:15:38.377Z,29.20
2023-02-15T00:16:39.505Z,28.30
2023-02-15T00:17:39.824Z,28.00
2023-02-15T00:18:40.691Z,34.00
2023-02-15T00:19:41.546Z,31.60
2023-02-15T00:20:42.394Z,32.90
2023-02-15T00:21:43.257Z,30.70
2023-02-15T00:22:44.114Z,29.00
2023-02-15T00:23:45.090Z,31.60
2023-02-15T00:24:45.863Z,27.80
2023-02-15T00:25:46.771Z,29.70
2023-02-15T00:26:47.633Z,30.80
2023-02-15T00:27:48.486Z,35.10
2023-02-15T00:28:49.356Z,30.40
2023-02-15T00:29:50.212Z,30.00
2023-02-15T00:30:51.145Z,28.20
2023-02-15T00:31:52.489Z,32.60
2023-02-15T00:32:52.834Z,28.00
2023-02-15T00:33:53.680Z,31.20
2023-02-15T00:34:54.531Z,27.90
2023-02-15T00:35:55.400Z,29.40
2023-02-15T00:36:56.261Z,31.10
2023-02-15T00:37:57.114Z,30.40
2023-02-15T00:38:57.988Z,29.20
2023-02-15T00:39:58.827Z,33.70
2023-02-15T00:40:59.686Z,29.30
2023-02-15T00:42:00.550Z,29.40
2023-02-15T00:43:01.416Z,30.60
2023-02-15T00:44:02.288Z,30.10
2023-02-15T00:45:03.063Z,30.80
2023-02-15T00:46:04.291Z,30.60
2023-02-15T00:47:04.758Z,33.30
2023-02-15T00:48:05.620Z,32.60
2023-02-15T00:49:06.557Z,32.40
2023-02-15T00:50:07.344Z,32.50
2023-02-15T00:51:08.201Z,33.90
2023-02-15T00:52:09.062Z,33.10
2023-02-15T00:53:09.930Z,33.70
2023-02-15T00:54:10.789Z,31.60
2023-02-15T00:55:11.624Z,33.40
2023-02-15T00:56:12.476Z,33.00
2023-02-15T00:57:13.469Z,32.60
2023-02-15T00:58:13.821Z,31.90
2023-02-15T00:59:14.694Z,32.70
2023-02-15T01:00:15.469Z,34.70
2023-02-15T01:01:16.424Z,33.20
2023-02-15T01:02:17.224Z,30.20
2023-02-15T01:03:18.078Z,31.70
2023-02-15T01:04:18.980Z,34.50
2023-02-15T01:05:19.802Z,30.60
2023-02-15T01:06:20.656Z,27.50
2023-02-15T01:07:21.509Z,30.50
2023-02-15T01:08:22.358Z,30.30
2023-02-15T01:09:23.235Z,31.10
2023-02-15T01:10:24.065Z,30.80
2023-02-15T01:11:24.934Z,35.40
2023-02-15T01:12:25.814Z,33.50
2023-02-15T01:13:26.652Z,30.00
2023-02-15T01:14:27.528Z,26.30
2023-02-15T01:15:28.329Z,28.70
2023-02-15T01:16:29.247Z,28.70
2023-02-15T01:17:30.089Z,32.00
2023-02-15T01:18:30.948Z,30.40
2023-02-15T01:19:31.792Z,35.00
2023-02-15T01:20:32.646Z,33.90
2023-02-15T01:21:33.496Z,33.50
2023-02-15T01:22:34.474Z,30.70
2023-02-15T01:23:35.320Z,31.90
2023-02-15T01:24:36.194Z,28.70
2023-02-15T01:25:37.045Z,31.50
2023-02-15T01:26:37.899Z,30.10
2023-02-15T01:27:38.761Z,31.80
2023-02-15T01:28:39.616Z,29.80
2023-02-15T01:29:40.514Z,32.00
2023-02-15T01:30:41.382Z,31.40
2023-02-15T01:31:42.337Z,35.00
2023-02-15T01:32:42.822Z,31.90
2023-02-15T01:33:43.601Z,32.20
2023-02-15T01:34:44.481Z,31.40
2023-02-15T01:35:45.352Z,35.40
2023-02-15T01:36:46.217Z,36.90
2023-02-15T01:37:47.469Z,32.00
2023-02-15T01:38:47.831Z,31.80
2023-02-15T01:39:48.698Z,34.20
2023-02-15T01:40:49.533Z,35.10
2023-02-15T01:41:50.391Z,32.60
2023-02-15T01:42:51.465Z,35.70
2023-02-15T01:43:51.833Z,37.50
2023-02-15T01:44:52.715Z,34.00
2023-02-15T01:45:53.539Z,33.70
2023-02-15T01:46:54.375Z,34.30
2023-02-15T01:47:55.466Z,32.70
2023-02-15T01:48:55.826Z,33.50
2023-02-15T01:49:56.687Z,33.90
2023-02-15T01:50:57.541Z,33.40
2023-02-15T01:51:58.393Z,32.70
2023-02-15T01:52:59.255Z,34.50
2023-02-15T01:54:00.164Z,39.00
2023-02-15T01:55:01.036Z,36.30
2023-02-15T01:56:02.233Z,37.60
2023-02-15T01:57:02.688Z,35.90
2023-02-15T01:58:03.960Z,32.80
2023-02-15T01:59:04.313Z,37.70
2023-02-15T02:00:05.187Z,36.40
2023-02-15T02:01:05.992Z,35.00
2023-02-15T02:02:06.841Z,34.50
2023-02-15T02:03:07.759Z,36.70
2023-02-15T02:04:08.593Z,34.90
2023-02-15T02:05:09.442Z,33.80
2023-02-15T02:06:10.336Z,35.90
2023-02-15T02:07:11.207Z,35.50
2023-02-15T02:08:12.060Z,36.60
2023-02-15T02:09:12.924Z,33.10
2023-02-15T02:10:13.815Z,35.40
2023-02-15T02:11:14.646Z,36.90
2023-02-15T02:12:15.489Z,38.70
2023-02-15T02:13:16.362Z,32.50
2023-02-15T02:14:17.258Z,37.60
2023-02-15T02:15:18.130Z,34.00
2023-02-15T02:16:18.943Z,35.60
2023-02-15T02:17:19.790Z,37.70
2023-02-15T02:18:20.952Z,39.20
2023-02-15T02:19:21.323Z,36.60
2023-02-15T02:20:22.222Z,39.30
2023-02-15T02:21:23.072Z,34.30
2023-02-15T02:22:23.947Z,37.80
2023-02-15T02:23:24.953Z,36.80
2023-02-15T02:24:25.311Z,36.00
2023-02-15T02:25:26.188Z,38.40
2023-02-15T02:26:27.017Z,34.80
2023-02-15T02:27:27.867Z,36.70
2023-02-15T02:28:28.728Z,38.50
2023-02-15T02:29:29.581Z,37.30
2023-02-15T02:30:30.663Z,36.40
2023-02-15T02:31:31.159Z,37.20
2023-02-15T02:32:31.510Z,37.20
2023-02-15T02:33:32.380Z,39.60
2023-02-15T02:34:33.224Z,37.80
2023-02-15T02:35:34.077Z,35.90
2023-02-15T02:36:34.931Z,38.40
2023-02-15T02:37:35.786Z,33.20
2023-02-15T02:38:36.645Z,33.90
2023-02-15T02:39:37.498Z,30.20
2023-02-15T02:40:38.368Z,31.20
2023-02-15T02:41:39.205Z,30.20
2023-02-15T02:42:40.053Z,32.00
2023-02-15T02:43:40.951Z,32.20
2023-02-15T02:44:41.802Z,31.30
2023-02-15T02:45:42.673Z,37.60
2023-02-15T02:46:43.524Z,36.70
2023-02-15T02:47:44.319Z,38.00
2023-02-15T02:48:45.452Z,40.80
2023-02-15T02:49:45.815Z,40.20
2023-02-15T02:50:46.666Z,32.90
2023-02-15T02:51:47.519Z,32.50
2023-02-15T02:52:48.378Z,35.10
2023-02-15T02:53:49.449Z,36.20
2023-02-15T02:54:49.800Z,32.90
2023-02-15T02:55:50.672Z,33.10
2023-02-15T02:56:51.503Z,34.20
2023-02-15T02:57:52.361Z,34.70
2023-02-15T02:58:53.226Z,39.90
2023-02-15T02:59:54.078Z,38.20
2023-02-15T03:00:54.949Z,37.70
2023-02-15T03:01:55.846Z,39.10
2023-02-15T03:02:56.755Z,36.70
2023-02-15T03:03:57.943Z,44.10
2023-02-15T03:04:58.300Z,37.50
2023-02-15T03:05:59.460Z,37.60
2023-02-15T03:06:59.883Z,41.80
2023-02-15T03:08:00.739Z,37.20
2023-02-15T03:09:01.945Z,36.40
2023-02-15T03:10:02.299Z,37.20
2023-02-15T03:11:03.181Z,40.20
2023-02-15T03:12:04.019Z,40.60
2023-02-15T03:13:04.871Z,36.80
2023-02-15T03:14:05.748Z,40.70
2023-02-15T03:15:06.601Z,37.40
2023-02-15T03:16:07.536Z,41.20
2023-02-15T03:17:08.333Z,37.40
2023-02-15T03:18:09.181Z,38.00
2023-02-15T03:19:10.450Z,36.60
2023-02-15T03:20:10.836Z,37.30
2023-02-15T03:21:11.665Z,37.60
2023-02-15T03:22:12.522Z,37.50
2023-02-15T03:23:13.392Z,38.60
2023-02-15T03:24:16.243Z,37.60
2023-02-15T03:25:15.217Z,34.10
2023-02-15T03:26:16.089Z,35.40
2023-02-15T03:27:16.921Z,35.50
2023-02-15T03:28:17.781Z,38.00
2023-02-15T03:29:18.948Z,35.50
2023-02-15T03:30:19.514Z,34.50
2023-02-15T03:31:19.977Z,36.00
2023-02-15T03:32:20.864Z,34.50
2023-02-15T03:33:21.704Z,32.10
2023-02-15T03:34:22.554Z,41.00
2023-02-15T03:35:23.426Z,41.70
2023-02-15T03:36:24.279Z,40.60
2023-02-15T03:37:25.143Z,39.10
2023-02-15T03:38:25.999Z,41.50
2023-02-15T03:39:26.947Z,38.80
2023-02-15T03:40:27.805Z,40.30
2023-02-15T03:41:28.684Z,36.30
2023-02-15T03:42:29.509Z,40.80
2023-02-15T03:43:30.364Z,35.60
2023-02-15T03:44:31.229Z,38.50
2023-02-15T03:45:32.074Z,40.80
2023-02-15T03:46:33.000Z,36.70
2023-02-15T03:47:33.911Z,40.60
2023-02-15T03:48:34.753Z,41.50
2023-02-15T03:49:35.626Z,36.00
2023-02-15T03:50:36.471Z,37.40
2023-02-15T03:51:37.450Z,35.80
2023-02-15T03:52:38.303Z,34.70
2023-02-15T03:53:39.172Z,38.40
2023-02-15T03:54:40.017Z,37.50
2023-02-15T03:55:40.874Z,36.60
2023-02-15T03:56:41.785Z,39.40
2023-02-15T03:57:42.586Z,36.90
2023-02-15T03:58:43.426Z,35.90
2023-02-15T03:59:44.442Z,39.60
2023-02-15T04:00:44.920Z,35.20
2023-02-15T04:01:45.730Z,37.90
2023-02-15T04:02:46.587Z,38.80
2023-02-15T04:03:47.454Z,38.20
2023-02-15T04:04:48.325Z,40.00
2023-02-15T04:05:49.176Z,36.40
2023-02-15T04:06:50.046Z,40.70
2023-02-15T04:07:50.903Z,38.00
2023-02-15T04:08:51.759Z,43.30
2023-02-15T04:09:52.942Z,44.10
2023-02-15T04:10:53.292Z,37.80
2023-02-15T04:11:54.170Z,40.90
2023-02-15T04:12:55.014Z,40.10
2023-02-15T04:13:55.880Z,43.70
2023-02-15T04:14:56.756Z,42.80
2023-02-15T04:15:57.662Z,44.10
2023-02-15T04:16:58.487Z,42.70
2023-02-15T04:17:59.267Z,41.90
2023-02-15T04:19:00.135Z,43.10
2023-02-15T04:20:00.999Z,45.40
2023-02-15T04:21:01.853Z,42.40
2023-02-15T04:22:02.705Z,39.50
2023-02-15T04:23:03.560Z,42.20
2023-02-15T04:24:04.423Z,43.60
2023-02-15T04:25:05.305Z,46.60
2023-02-15T04:26:06.139Z,45.50
2023-02-15T04:27:07.046Z,42.30
2023-02-15T04:28:07.838Z,41.20
2023-02-15T04:29:08.702Z,42.10
2023-02-15T04:30:09.668Z,40.60
2023-02-15T04:31:10.540Z,40.60
2023-02-15T04:32:11.465Z,41.90
2023-02-15T04:33:12.271Z,43.40
2023-02-15T04:34:13.143Z,47.20
2023-02-15T04:35:14.430Z,45.00
2023-02-15T04:36:14.782Z,43.60
2023-02-15T04:37:15.636Z,44.90
2023-02-15T04:38:16.492Z,46.10
2023-02-15T04:39:17.343Z,44.60
2023-02-15T04:40:19.659Z,41.30
2023-02-15T04:41:19.076Z,43.30
2023-02-15T04:42:19.963Z,43.00
2023-02-15T04:43:20.791Z,45.30
2023-02-15T04:44:21.642Z,45.60
2023-02-15T04:45:22.505Z,43.30
2023-02-15T04:46:23.382Z,44.70
2023-02-15T04:47:24.234Z,47.40
2023-02-15T04:48:25.012Z,42.20
2023-02-15T04:49:25.901Z,40.30
2023-02-15T04:50:26.763Z,43.90
2023-02-15T04:51:27.635Z,42.00
2023-02-15T04:52:28.473Z,45.20
2023-02-15T04:53:29.327Z,44.20
2023-02-15T04:54:30.294Z,45.60
2023-02-15T04:55:31.164Z,45.50
2023-02-15T04:56:32.008Z,41.50
2023-02-15T04:57:32.879Z,44.70
2023-02-15T04:58:33.732Z,44.50
2023-02-15T04:59:34.587Z,45.80
2023-02-15T05:00:35.924Z,46.00
2023-02-15T05:01:36.283Z,49.80
2023-02-15T05:02:37.181Z,43.20
2023-02-15T05:03:37.970Z,45.10
2023-02-15T05:04:38.843Z,49.70
2023-02-15T05:05:39.708Z,45.30
2023-02-15T05:06:40.562Z,45.30
2023-02-15T05:07:41.416Z,46.60
2023-02-15T05:08:42.269Z,47.90
2023-02-15T05:09:43.119Z,46.80
2023-02-15T05:10:43.984Z,47.90
2023-02-15T05:11:44.836Z,45.60
2023-02-15T05:12:45.706Z,44.00
2023-02-15T05:13:46.539Z,50.60
2023-02-15T05:14:47.398Z,47.00
2023-02-15T05:15:48.267Z,52.10
2023-02-15T05:16:49.219Z,50.80
2023-02-15T05:17:50.056Z,49.70
2023-02-15T05:18:50.832Z,49.40
2023-02-15T05:19:51.687Z,45.70
2023-02-15T05:20:52.564Z,50.50
2023-02-15T05:21:53.414Z,45.40
2023-02-15T05:22:54.268Z,49.80
2023-02-15T05:23:55.122Z,51.50
2023-02-15T05:24:55.984Z,46.70
2023-02-15T05:25:56.921Z,51.30
2023-02-15T05:26:57.782Z,49.10
2023-02-15T05:27:58.691Z,48.30
2023-02-15T05:28:59.526Z,51.40
2023-02-15T05:30:00.471Z,46.40
2023-02-15T05:31:01.825Z,48.10
2023-02-15T05:32:02.444Z,50.30
2023-02-15T05:33:02.865Z,46.10
2023-02-15T05:34:03.641Z,47.80
2023-02-15T05:35:04.496Z,46.50
2023-02-15T05:36:05.764Z,53.00
2023-02-15T05:37:06.240Z,53.40
2023-02-15T05:38:07.099Z,52.90
2023-02-15T05:39:07.952Z,50.00
2023-02-15T05:40:08.807Z,47.90
2023-02-15T05:41:09.670Z,47.70
2023-02-15T05:42:10.541Z,47.30
2023-02-15T05:43:11.421Z,44.50
2023-02-15T05:44:12.257Z,47.80
2023-02-15T05:45:13.140Z,47.60
2023-02-15T05:46:14.488Z,47.80
2023-02-15T05:47:14.896Z,46.30
2023-02-15T05:48:15.777Z,44.40
2023-02-15T05:49:16.568Z,44.10
2023-02-15T05:50:17.422Z,49.70
2023-02-15T05:51:18.298Z,48.20
2023-02-15T05:52:19.152Z,45.30
2023-02-15T05:53:19.997Z,47.70
2023-02-15T05:54:20.847Z,45.30
2023-02-15T05:55:21.700Z,46.90
2023-02-15T05:56:22.564Z,44.70
2023-02-15T05:57:23.417Z,43.40
2023-02-15T05:58:24.293Z,42.40
2023-02-15T05:59:25.129Z,45.10
2023-02-15T06:00:25.981Z,47.70
2023-02-15T06:01:26.842Z,45.50
2023-02-15T06:02:27.747Z,47.40
2023-02-15T06:03:28.691Z,46.50
2023-02-15T06:04:29.503Z,45.30
2023-02-15T06:05:30.355Z,42.90
2023-02-15T06:06:31.419Z,46.10
2023-02-15T06:07:31.778Z,43.40
2023-02-15T06:08:32.630Z,44.20
2023-02-15T06:09:33.501Z,48.00
2023-02-15T06:10:34.347Z,48.90
2023-02-15T06:11:35.202Z,50.40
2023-02-15T06:12:36.059Z,54.10
2023-02-15T06:13:38.718Z,50.90
2023-02-15T06:14:37.775Z,51.60
2023-02-15T06:15:38.661Z,54.90
2023-02-15T06:16:39.507Z,48.80
2023-02-15T06:17:40.374Z,47.20
2023-02-15T06:18:41.242Z,46.20
2023-02-15T06:19:42.021Z,44.10
2023-02-15T06:20:42.872Z,45.80
2023-02-15T06:21:43.733Z,45.30
2023-02-15T06:22:44.594Z,42.90
2023-02-15T06:23:45.438Z,47.40
2023-02-15T06:24:46.295Z,48.20
2023-02-15T06:25:47.158Z,47.50
2023-02-15T06:26:48.014Z,50.60
2023-02-15T06:27:48.870Z,46.30
2023-02-15T06:28:49.746Z,48.90
2023-02-15T06:29:50.619Z,47.20
2023-02-15T06:30:51.455Z,44.30
2023-02-15T06:31:52.444Z,43.20
2023-02-15T06:32:52.842Z,43.00
2023-02-15T06:33:53.723Z,45.60
2023-02-15T06:34:54.501Z,41.10
2023-02-15T06:35:55.357Z,50.90
2023-02-15T06:36:56.420Z,50.50
2023-02-15T06:37:56.801Z,43.60
2023-02-15T06:38:57.642Z,45.70
2023-02-15T06:39:58.511Z,45.00
2023-02-15T06:40:59.368Z,42.10
2023-02-15T06:42:00.420Z,49.90
2023-02-15T06:43:00.768Z,47.70
2023-02-15T06:44:01.651Z,50.40
2023-02-15T06:45:02.482Z,53.20
2023-02-15T06:46:03.782Z,48.40
2023-02-15T06:47:04.250Z,48.90
2023-02-15T06:48:05.108Z,48.60
2023-02-15T06:49:05.975Z,46.70
2023-02-15T06:50:06.823Z,45.80
2023-02-15T06:51:07.680Z,51.00
2023-02-15T06:52:08.921Z,50.40
2023-02-15T06:53:09.281Z,48.70
2023-02-15T06:54:10.138Z,49.80
2023-02-15T06:55:10.990Z,50.00
2023-02-15T06:56:11.843Z,49.20
2023-02-15T06:57:12.713Z,47.90
2023-02-15T06:58:13.579Z,46.00
2023-02-15T06:59:14.457Z,45.50
2023-02-15T07:00:15.286Z,41.30
2023-02-15T07:01:16.186Z,44.20
2023-02-15T07:02:17.424Z,41.60
2023-02-15T07:03:17.778Z,44.30
2023-02-15T07:04:18.653Z,45.20
2023-02-15T07:05:19.436Z,42.00
2023-02-15T07:06:20.294Z,41.00
2023-02-15T07:07:21.204Z,39.50
2023-02-15T07:08:22.058Z,40.80
2023-02-15T07:09:22.911Z,43.60
2023-02-15T07:10:23.772Z,39.40
2023-02-15T07:11:24.642Z,38.50
2023-02-15T07:12:25.927Z,45.50
2023-02-15T07:13:26.259Z,38.40
2023-02-15T07:14:28.975Z,40.90
2023-02-15T07:15:27.897Z,37.60
2023-02-15T07:16:28.911Z,39.80
2023-02-15T07:17:36.862Z,38.50
2023-02-15T07:18:31.016Z,36.50
2023-02-15T07:19:30.885Z,43.10
2023-02-15T07:20:31.702Z,36.40
2023-02-15T07:21:32.556Z,39.90
2023-02-15T07:22:33.411Z,38.10
2023-02-15T07:23:34.275Z,38.90
2023-02-15T07:24:35.129Z,38.50
2023-02-15T07:25:35.989Z,38.30
2023-02-15T07:26:36.842Z,36.80
2023-02-15T07:27:37.897Z,37.90
2023-02-15T07:28:38.281Z,38.70
2023-02-15T07:29:39.125Z,37.00
2023-02-15T07:30:40.031Z,39.30
2023-02-15T07:31:40.831Z,41.10
2023-02-15T07:32:42.035Z,40.70
2023-02-15T07:33:42.403Z,41.10
2023-02-15T07:34:43.293Z,36.80
2023-02-15T07:35:44.081Z,35.70
2023-02-15T07:36:44.935Z,36.00
2023-02-15T07:37:45.895Z,38.00
2023-02-15T07:38:46.780Z,38.80
2023-02-15T07:39:47.631Z,35.30
2023-02-15T07:40:48.472Z,39.30
2023-02-15T07:41:49.328Z,37.70
2023-02-15T07:42:50.201Z,34.60
2023-02-15T07:43:51.067Z,37.70
2023-02-15T07:44:51.998Z,37.20
2023-02-15T07:45:52.787Z,36.80
2023-02-15T07:46:53.688Z,32.00
2023-02-15T07:47:54.897Z,35.00
2023-02-15T07:48:55.249Z,36.50
2023-02-15T07:49:56.142Z,37.20
2023-02-15T07:50:56.928Z,37.70
2023-02-15T07:51:57.784Z,38.60
2023-02-15T07:52:58.648Z,38.00
2023-02-15T07:53:59.505Z,38.30
2023-02-15T07:55:00.365Z,36.40
2023-02-15T07:56:01.681Z,36.20
2023-02-15T07:57:02.121Z,35.60
2023-02-15T07:58:03.394Z,34.70
2023-02-15T07:59:03.750Z,35.10
2023-02-15T08:00:04.648Z,36.20
2023-02-15T08:01:05.485Z,35.50
2023-02-15T08:02:06.336Z,34.40
2023-02-15T08:03:07.288Z,37.00
2023-02-15T08:04:08.164Z,33.10
2023-02-15T08:05:09.024Z,33.40
2023-02-15T08:06:09.792Z,32.00
2023-02-15T08:07:10.655Z,36.30
2023-02-15T08:08:11.508Z,34.60
2023-02-15T08:09:12.378Z,30.10
2023-02-15T08:10:13.212Z,34.20
2023-02-15T08:11:14.863Z,32.20
2023-02-15T08:12:14.724Z,33.40
2023-02-15T08:13:15.585Z,30.60
2023-02-15T08:14:16.449Z,39.10
2023-02-15T08:15:17.334Z,35.00
2023-02-15T08:16:18.190Z,29.30
2023-02-15T08:17:19.034Z,31.80
2023-02-15T08:18:19.901Z,31.20
2023-02-15T08:19:20.759Z,30.20
2023-02-15T08:20:21.626Z,30.40
2023-02-15T08:21:24.840Z,30.80
2023-02-15T08:22:23.285Z,28.90
2023-02-15T08:23:24.405Z,29.70
2023-02-15T08:24:24.752Z,27.30
2023-02-15T08:25:25.607Z,30.30
2023-02-15T08:26:26.458Z,30.30
2023-02-15T08:27:27.310Z,28.90
2023-02-15T08:28:28.175Z,29.40
2023-02-15T08:29:29.034Z,27.90
2023-02-15T08:30:30.054Z,30.90
2023-02-15T08:31:30.512Z,25.20
2023-02-15T08:32:31.387Z,29.90
2023-02-15T08:33:32.258Z,27.10
2023-02-15T08:34:33.125Z,28.20
2023-02-15T08:35:33.994Z,28.80
2023-02-15T08:36:34.823Z,27.70
2023-02-15T08:37:35.665Z,27.70
2023-02-15T08:38:36.526Z,28.80
2023-02-15T08:39:37.378Z,27.00
2023-02-15T08:40:38.242Z,28.60
2023-02-15T08:41:39.088Z,27.40
2023-02-15T08:42:39.945Z,26.00
2023-02-15T08:43:40.802Z,25.70
2023-02-15T08:44:41.661Z,27.40
2023-02-15T08:45:42.596Z,26.50
2023-02-15T08:46:43.400Z,26.10
2023-02-15T08:47:44.258Z,25.40
2023-02-15T08:48:45.111Z,24.70
2023-02-15T08:49:45.962Z,25.20
2023-02-15T08:50:46.831Z,24.30
2023-02-15T08:51:47.606Z,25.80
2023-02-15T08:52:48.458Z,25.50
2023-02-15T08:53:49.323Z,25.20
2023-02-15T08:54:50.175Z,24.30
2023-02-15T08:55:51.028Z,25.30
2023-02-15T08:56:51.902Z,24.70
2023-02-15T08:57:52.749Z,25.90
2023-02-15T08:58:53.613Z,25.90
2023-02-15T08:59:54.466Z,23.90
2023-02-15T09:00:55.378Z,23.70
2023-02-15T09:01:56.253Z,24.30
2023-02-15T09:02:57.077Z,26.00
2023-02-15T09:03:58.406Z,24.80
2023-02-15T09:04:58.757Z,24.90
2023-02-15T09:05:59.661Z,22.90
2023-02-15T09:07:00.442Z,27.00
2023-02-15T09:08:01.291Z,22.50
2023-02-15T09:09:02.177Z,24.80
2023-02-15T09:10:03.005Z,24.60
2023-02-15T09:11:04.100Z,21.80
2023-02-15T09:12:04.459Z,22.20
2023-02-15T09:13:05.311Z,24.90
2023-02-15T09:14:06.177Z,23.70
2023-02-15T09:15:07.032Z,22.60
2023-02-15T09:16:07.935Z,23.10
2023-02-15T09:17:08.743Z,22.30
2023-02-15T09:18:09.591Z,23.60
2023-02-15T09:19:10.475Z,22.90
2023-02-15T09:20:11.323Z,23.00
2023-02-15T09:21:12.199Z,22.60
2023-02-15T09:22:12.978Z,24.10
2023-02-15T09:23:26.381Z,23.70
2023-02-15T09:24:15.590Z,22.90
2023-02-15T09:25:15.442Z,23.20
2023-02-15T09:26:16.291Z,23.20
2023-02-15T09:27:17.144Z,24.30
2023-02-15T09:28:17.993Z,21.20
2023-02-15T09:29:18.898Z,21.00
2023-02-15T09:30:19.911Z,22.90
2023-02-15T09:31:20.495Z,22.90
2023-02-15T09:32:20.887Z,22.80
2023-02-15T09:33:21.678Z,21.60
2023-02-15T09:34:22.589Z,22.90
2023-02-15T09:35:23.407Z,21.20
2023-02-15T09:36:24.272Z,22.30
2023-02-15T09:37:25.045Z,19.60
2023-02-15T09:38:25.905Z,23.10
2023-02-15T09:39:26.782Z,21.10
2023-02-15T09:40:27.612Z,19.90
2023-02-15T09:41:28.465Z,20.50
2023-02-15T09:42:29.338Z,21.20
2023-02-15T09:43:30.188Z,20.90
2023-02-15T09:44:31.407Z,19.30
2023-02-15T09:45:31.761Z,22.80
2023-02-15T09:46:32.709Z,20.70
2023-02-15T09:47:33.483Z,22.20
2023-02-15T09:48:34.334Z,21.40
2023-02-15T09:49:35.196Z,20.60
2023-02-15T09:50:36.779Z,19.60
2023-02-15T09:51:36.680Z,20.70
2023-02-15T09:52:37.476Z,21.30
2023-02-15T09:53:38.322Z,20.30
2023-02-15T09:54:39.188Z,22.70
2023-02-15T09:55:40.067Z,20.60
2023-02-15T09:56:40.899Z,21.40
2023-02-15T09:57:41.746Z,19.20
2023-02-15T09:58:42.601Z,19.30
2023-02-15T09:59:43.472Z,18.40
2023-02-15T10:00:44.319Z,19.70
2023-02-15T10:01:45.272Z,21.30
2023-02-15T10:02:46.069Z,20.10
2023-02-15T10:03:46.921Z,19.60
2023-02-15T10:04:47.848Z,18.90
2023-02-15T10:05:48.659Z,21.20
2023-02-15T10:06:49.527Z,20.40
2023-02-15T10:07:50.319Z,19.70
2023-02-15T10:08:51.172Z,18.80
2023-02-15T10:09:52.426Z,22.70
2023-02-15T10:10:52.764Z,19.20
2023-02-15T10:11:53.613Z,19.30
2023-02-15T10:12:54.463Z,18.20
2023-02-15T10:13:55.316Z,18.80
2023-02-15T10:14:56.173Z,19.00
2023-02-15T10:15:57.026Z,19.70
2023-02-15T10:16:57.950Z,18.60
2023-02-15T10:17:58.768Z,20.10
2023-02-15T10:18:59.617Z,20.60
2023-02-15T10:20:00.521Z,19.00
2023-02-15T10:21:01.713Z,20.10
2023-02-15T10:22:02.237Z,18.60
2023-02-15T10:23:03.033Z,18.60
2023-02-15T10:24:03.886Z,21.10
2023-02-15T10:25:04.745Z,17.70
2023-02-15T10:26:05.597Z,19.20
2023-02-15T10:27:06.452Z,18.10
2023-02-15T10:28:07.342Z,18.60
2023-02-15T10:29:08.186Z,17.80
2023-02-15T10:30:09.440Z,18.30
2023-02-15T10:31:09.892Z,17.00
2023-02-15T10:32:10.926Z,18.00
2023-02-15T10:33:11.300Z,17.90
2023-02-15T10:34:12.147Z,16.40
2023-02-15T10:35:13.035Z,17.90
2023-02-15T10:36:13.891Z,16.20
2023-02-15T10:37:14.772Z,15.50
2023-02-15T10:38:15.562Z,17.00
2023-02-15T10:39:16.419Z,17.80
2023-02-15T10:40:17.276Z,17.50
2023-02-15T10:41:18.127Z,18.50
2023-02-15T10:42:18.989Z,19.00
2023-02-15T10:43:19.844Z,22.30
2023-02-15T10:44:20.696Z,17.70
2023-02-15T10:45:21.552Z,18.70
2023-02-15T10:46:22.455Z,18.10
2023-02-15T10:47:23.281Z,18.80
2023-02-15T10:48:24.110Z,16.30
2023-02-15T10:49:24.963Z,16.90
2023-02-15T10:50:25.834Z,16.60
2023-02-15T10:51:26.671Z,16.70
2023-02-15T10:52:27.536Z,16.20
2023-02-15T10:53:28.308Z,17.90
2023-02-15T10:54:29.159Z,18.10
2023-02-15T10:55:30.016Z,15.60
2023-02-15T10:56:30.867Z,18.20
2023-02-15T10:57:31.722Z,16.70
2023-02-15T10:58:32.576Z,16.60
2023-02-15T10:59:33.427Z,15.80
2023-02-15T11:00:34.434Z,17.00
2023-02-15T11:01:34.864Z,16.30
2023-02-15T11:02:35.680Z,17.50
2023-02-15T11:03:36.544Z,15.90
2023-02-15T11:04:37.444Z,17.60
2023-02-15T11:05:38.428Z,16.00
2023-02-15T11:06:38.780Z,16.20
2023-02-15T11:07:39.647Z,16.40
2023-02-15T11:08:40.440Z,17.90
2023-02-15T11:09:41.297Z,15.40
2023-02-15T11:10:42.162Z,17.50
2023-02-15T11:11:43.014Z,16.00
2023-02-15T11:12:43.864Z,17.20
2023-02-15T11:13:44.729Z,16.90
2023-02-15T11:14:45.581Z,17.20
2023-02-15T11:15:46.978Z,16.40
2023-02-15T11:16:47.297Z,15.70
2023-02-15T11:17:48.294Z,17.20
2023-02-15T11:18:49.061Z,16.40
2023-02-15T11:19:49.917Z,16.40
2023-02-15T11:20:50.799Z,16.70
2023-02-15T11:21:51.655Z,15.20
2023-02-15T11:22:52.546Z,15.40
2023-02-15T11:23:53.348Z,16.10
2023-02-15T11:24:54.208Z,15.50
2023-02-15T11:25:55.066Z,15.60
2023-02-15T11:26:56.034Z,15.70
2023-02-15T11:27:56.854Z,15.30
2023-02-15T11:28:57.698Z,15.90
2023-02-15T11:29:58.579Z,13.90
2023-02-15T11:30:59.577Z,14.50
2023-02-15T11:32:00.192Z,15.00
2023-02-15T11:33:00.630Z,16.10
2023-02-15T11:34:01.429Z,15.00
2023-02-15T11:35:02.278Z,14.70
2023-02-15T11:36:03.441Z,15.10
2023-02-15T11:37:03.799Z,13.70
2023-02-15T11:38:04.663Z,16.40
2023-02-15T11:39:05.438Z,13.60
2023-02-15T11:40:06.288Z,14.80
2023-02-15T11:41:07.440Z,14.70
2023-02-15T11:42:07.783Z,14.90
2023-02-15T11:43:08.630Z,15.30
2023-02-15T11:44:09.480Z,13.60
2023-02-15T11:45:10.348Z,15.20
2023-02-15T11:46:12.359Z,14.60
2023-02-15T11:47:11.780Z,15.70
2023-02-15T11:48:12.695Z,13.40
2023-02-15T11:49:13.484Z,14.50
2023-02-15T11:50:14.332Z,16.70
2023-02-15T11:51:15.193Z,14.80
2023-02-15T11:52:16.051Z,13.50
2023-02-15T11:53:16.918Z,13.80
2023-02-15T11:54:17.752Z,14.10
2023-02-15T11:55:18.603Z,14.50
2023-02-15T11:56:19.466Z,13.60
2023-02-15T11:57:21.816Z,15.00
2023-02-15T11:58:20.812Z,14.40
2023-02-15T11:59:21.663Z,13.10
2023-02-15T12:00:22.514Z,14.80
2023-02-15T12:01:23.376Z,14.00
2023-02-15T12:02:24.345Z,14.20
2023-02-15T12:03:25.161Z,13.90
2023-02-15T12:04:26.001Z,13.60
2023-02-15T12:05:26.865Z,14.00
2023-02-15T12:06:27.730Z,13.70
2023-02-15T12:07:28.582Z,12.60
2023-02-15T12:08:29.539Z,13.10
2023-02-15T12:09:30.339Z,12.50
2023-02-15T12:10:31.193Z,12.30
2023-02-15T12:11:32.445Z,13.40
2023-02-15T12:12:32.802Z,13.60
2023-02-15T12:13:33.662Z,12.90
2023-02-15T12:14:34.510Z,13.50
2023-02-15T12:15:35.360Z,12.50
2023-02-15T12:16:36.301Z,12.30
2023-02-15T12:17:37.123Z,14.70
2023-02-15T12:18:38.066Z,14.10
2023-02-15T12:19:38.839Z,13.80
2023-02-15T12:20:39.693Z,13.60
2023-02-15T12:21:40.955Z,13.90
2023-02-15T12:22:41.314Z,13.20
2023-02-15T12:23:42.269Z,13.70
2023-02-15T12:24:43.048Z,14.70
2023-02-15T12:25:43.899Z,14.40
2023-02-15T12:26:44.941Z,13.30
2023-02-15T12:27:45.303Z,13.80
2023-02-15T12:28:46.156Z,15.00
2023-02-15T12:29:47.030Z,15.00
2023-02-15T12:30:47.984Z,14.70
2023-02-15T12:31:48.993Z,16.40
2023-02-15T12:32:49.338Z,14.10
2023-02-15T12:33:50.197Z,15.60
2023-02-15T12:34:51.032Z,16.50
2023-02-15T12:35:51.884Z,13.90
2023-02-15T12:36:52.748Z,14.10
2023-02-15T12:37:53.596Z,15.20
2023-02-15T12:38:59.426Z,15.60
2023-02-15T12:39:56.222Z,15.20
2023-02-15T12:40:56.073Z,15.10
2023-02-15T12:41:56.945Z,15.30
2023-02-15T12:42:57.803Z,14.70
2023-02-15T12:43:58.647Z,14.60
2023-02-15T12:44:59.521Z,14.70
2023-02-15T12:46:00.770Z,16.20
2023-02-15T12:47:01.234Z,14.30
2023-02-15T12:48:02.057Z,16.00
2023-02-15T12:49:02.931Z,14.20
2023-02-15T12:50:03.923Z,15.40
2023-02-15T12:51:04.708Z,15.70
2023-02-15T12:52:05.568Z,15.00
2023-02-15T12:53:06.458Z,14.10
2023-02-15T12:54:07.391Z,16.20
2023-02-15T12:55:08.174Z,15.60
2023-02-15T12:56:09.055Z,15.10
2023-02-15T12:57:09.882Z,16.40
2023-02-15T12:58:10.731Z,17.10
2023-02-15T12:59:11.615Z,15.40
2023-02-15T13:00:12.466Z,17.60
2023-02-15T13:01:13.370Z,17.20
2023-02-15T13:02:14.279Z,17.40
2023-02-15T13:03:15.089Z,16.10